Time;durP1;ratioP1;P1;durP2;ratioP2;P2;SDS_P1;SDS_P2;PMS_P1;PMS_P2;Temp;Humidity;BMP_temperature;BMP_pressure;BME280_temperature;BME280_humidity;BME280_pressure;Samples;Min_cycle;Max_cycle;Signal;HPM_P1;HPM_P2
2022/03/18 00:04:31;;;;;;;74.93;69.23;;;;;;;6.59;100.00;103870.84;1991063;71;32884;-68
2022/03/18 00:10:17;;;;;;;75.20;69.57;;;;;;;6.74;100.00;103889.69;2003722;71;32927;-70
2022/03/18 00:16:04;;;;;;;68.80;63.27;;;;;;;6.67;100.00;103878.53;1991278;71;33340;-69
2022/03/18 00:21:52;;;;;;;63.63;58.27;;;;;;;6.67;100.00;103881.30;2016290;71;33325;-69
2022/03/18 00:27:36;;;;;;;65.87;60.17;;;;;;;7.00;100.00;103887.90;2006066;71;32737;-66
2022/03/18 00:33:22;;;;;;;64.83;59.67;;;;;;;6.84;100.00;103897.20;2007931;71;32835;-70
2022/03/18 00:39:07;;;;;;;69.20;63.40;;;;;;;6.83;100.00;103889.44;2016499;71;32970;-68
2022/03/18 00:44:51;;;;;;;67.00;61.60;;;;;;;6.85;100.00;103898.38;1996987;71;33337;-70
2022/03/18 00:56:39;;;;;;;67.43;61.93;;;;;;;6.80;100.00;103916.59;2004826;71;32823;-67
2022/03/18 01:02:26;;;;;;;64.33;59.10;;;;;;;6.68;100.00;103924.95;2016342;71;32868;-66
2022/03/18 01:08:10;;;;;;;65.40;60.20;;;;;;;6.21;100.00;103933.38;1994632;71;32819;-67
2022/03/18 01:13:55;;;;;;;66.83;61.30;;;;;;;6.05;100.00;103926.56;2014453;71;32971;-69
2022/03/18 01:19:40;;;;;;;68.00;62.60;;;;;;;6.26;100.00;103929.55;2009305;71;33488;-69
2022/03/18 01:25:24;;;;;;;64.13;58.97;;;;;;;6.23;100.00;103932.69;2014558;71;33282;-70
2022/03/18 01:31:09;;;;;;;67.27;61.63;;;;;;;6.14;100.00;103935.14;2001093;71;32738;-69
2022/03/18 01:36:53;;;;;;;64.43;58.97;;;;;;;6.29;100.00;103933.36;2000495;71;32903;-67
2022/03/18 01:42:40;;;;;;;67.67;62.13;;;;;;;6.24;100.00;103935.28;2011403;71;32817;-70
2022/03/18 01:48:26;;;;;;;66.13;60.73;;;;;;;5.96;100.00;103936.78;2016501;71;32889;-68
2022/03/18 02:00:18;;;;;;;67.40;61.77;;;;;;;5.96;100.00;103936.78;2011074;71;33439;-70
2022/03/18 02:06:02;;;;;;;71.27;65.40;;;;;;;6.23;100.00;103959.77;2014690;71;32830;-67
2022/03/18 02:11:49;;;;;;;69.23;63.73;;;;;;;5.93;100.00;103968.36;2012840;71;32811;-69
2022/03/18 02:17:46;;;;;;;70.93;65.17;;;;;;;5.76;100.00;103963.05;1998315;71;32861;-70
2022/03/18 02:23:31;;;;;;;67.27;61.87;;;;;;;5.60;100.00;103969.48;2002254;71;32901;-69
2022/03/18 02:29:16;;;;;;;67.73;62.57;;;;;;;5.41;100.00;103978.98;2000383;71;32811;-67
2022/03/18 02:35:01;;;;;;;64.43;59.63;;;;;;;5.22;100.00;103976.58;1991191;71;32882;-67
2022/03/18 02:40:46;;;;;;;62.77;57.77;;;;;;;5.11;100.00;103981.08;2007397;71;33348;-67
2022/03/18 02:46:32;;;;;;;68.13;62.97;;;;;;;5.17;100.00;103994.17;2016268;71;32830;-67
2022/03/18 02:52:17;;;;;;;67.03;62.00;;;;;;;5.08;100.00;103991.59;2004086;71;33229;-68
2022/03/18 02:58:02;;;;;;;71.93;66.73;;;;;;;4.99;100.00;103997.61;2016168;71;32897;-70
2022/03/18 03:03:48;;;;;;;69.17;64.17;;;;;;;4.82;100.00;104002.25;2008019;71;33287;-70
2022/03/18 03:09:32;;;;;;;62.83;57.80;;;;;;;4.97;100.00;104001.91;1998909;71;33274;-67
2022/03/18 03:15:16;;;;;;;66.17;61.00;;;;;;;4.84;100.00;104011.70;2016420;71;32899;-70
2022/03/18 03:21:00;;;;;;;65.93;60.97;;;;;;;4.77;100.00;104018.92;2016493;71;32960;-67
2022/03/18 03:26:46;;;;;;;63.80;58.67;;;;;;;4.69;100.00;104034.05;1991775;71;32848;-69
2022/03/18 03:32:30;;;;;;;64.67;59.97;;;;;;;4.63;100.00;104032.83;2015024;71;32823;-66
2022/03/18 03:38:16;;;;;;;64.70;59.90;;;;;;;4.70;100.00;104046.29;2016860;71;32906;-67
2022/03/18 03:44:00;;;;;;;66.60;61.70;;;;;;;4.68;100.00;104044.20;2000685;71;32799;-69
2022/03/18 03:46:33;;;;;;;64.30;59.73;;;;;;;4.75;100.00;104063.69;1958609;72;26616;-69
2022/03/18 03:52:17;;;;;;;63.33;58.20;;;;;;;4.60;100.00;104059.33;2011517;71;32814;-67
2022/03/18 03:58:01;;;;;;;64.43;59.37;;;;;;;4.64;100.00;104060.72;2016718;71;33275;-68
2022/03/18 04:03:47;;;;;;;64.53;59.63;;;;;;;4.63;100.00;104063.12;2018334;71;32872;-70
2022/03/18 04:09:31;;;;;;;65.00;60.00;;;;;;;4.62;100.00;104065.52;2002705;71;33215;-70
2022/03/18 04:15:16;;;;;;;61.50;56.97;;;;;;;4.68;100.00;104059.35;1997002;71;32742;-69
2022/03/18 04:21:01;;;;;;;61.50;56.83;;;;;;;4.40;100.00;104062.89;2013189;71;32870;-68
2022/03/18 04:26:46;;;;;;;64.50;59.80;;;;;;;4.32;100.00;104063.37;2009440;71;32851;-69
2022/03/18 04:32:30;;;;;;;60.67;55.87;;;;;;;4.45;100.00;104057.72;2016605;71;32809;-69
2022/03/18 04:38:16;;;;;;;59.30;54.53;;;;;;;4.53;100.00;104049.52;2002507;71;32814;-70
2022/03/18 04:44:01;;;;;;;60.97;55.97;;;;;;;4.36;100.00;104061.50;2016657;71;32978;-70
2022/03/18 04:49:47;;;;;;;61.50;56.77;;;;;;;3.87;100.00;104063.63;2011546;71;32832;-78
2022/03/18 04:55:32;;;;;;;59.47;54.67;;;;;;;4.06;100.00;104064.78;2015036;71;32848;-66
2022/03/18 05:01:18;;;;;;;59.53;54.73;;;;;;;3.87;100.00;104073.25;1984070;71;39754;-67
2022/03/18 05:07:01;;;;;;;61.43;56.60;;;;;;;3.78;100.00;104083.34;2000806;71;33257;-70
2022/03/18 05:12:47;;;;;;;58.70;54.13;;;;;;;3.87;100.00;104089.75;2005505;71;32866;-69
2022/03/18 05:18:33;;;;;;;58.30;53.80;;;;;;;3.68;100.00;104094.94;1997066;71;32747;-69
2022/03/18 05:24:18;;;;;;;60.90;56.13;;;;;;;3.77;100.00;104109.61;2018410;71;32801;-68
2022/03/18 05:30:02;;;;;;;59.27;54.77;;;;;;;3.76;100.00;104117.53;2003952;71;33274;-69
2022/03/18 05:35:48;;;;;;;61.90;57.07;;;;;;;3.85;100.00;104126.20;2007670;71;33320;-69
2022/03/18 05:41:34;;;;;;;60.40;55.80;;;;;;;3.13;100.00;104125.37;2016551;71;32976;-69
2022/03/18 05:47:19;;;;;;;58.93;54.53;;;;;;;3.08;100.00;104134.58;2009197;71;32853;-70
2022/03/18 05:53:04;;;;;;;58.20;53.80;;;;;;;3.47;100.00;104139.77;2009846;71;33277;-70
2022/03/18 05:58:51;;;;;;;58.93;54.13;;;;;;;3.36;100.00;104149.13;2006449;71;33309;-70
2022/03/18 06:04:46;;;;;;;62.40;57.63;;;;;;;3.56;100.00;104156.19;2014757;71;32792;-66
2022/03/18 06:13:39;;;;;;;60.60;55.50;;;;;;;3.81;100.00;104164.12;2060737;69;33178;-66
2022/03/18 06:16:10;;;;;;;64.07;58.73;;;;;;;3.91;100.00;104181.91;2007770;70;26300;-66
2022/03/18 06:18:42;;;;;;;59.73;54.80;;;;;;;4.01;100.00;104186.31;2007168;70;26331;-67
2022/03/18 06:21:15;;;;;;;56.77;52.03;;;;;;;3.94;100.00;104182.45;1937817;74;26233;-66
2022/03/18 06:23:45;;;;;;;58.53;53.83;;;;;;;3.91;100.00;104181.91;1937641;73;26229;-66
2022/03/18 06:26:16;;;;;;;59.43;54.83;;;;;;;3.86;100.00;104185.64;1966132;72;26299;-67
2022/03/18 06:32:03;;;;;;;59.13;54.40;;;;;;;3.80;100.00;104191.80;2001025;71;33445;-66
2022/03/18 06:37:50;;;;;;;60.23;55.23;;;;;;;3.81;100.00;104193.00;2006177;71;32790;-70
2022/03/18 06:43:35;;;;;;;58.93;54.07;;;;;;;3.94;100.00;104203.08;2006382;71;33204;-69
2022/03/18 06:49:20;;;;;;;56.93;52.10;;;;;;;3.95;100.00;104212.20;2014882;71;33398;-67
2022/03/18 06:55:08;;;;;;;60.43;55.83;;;;;;;4.09;100.00;104217.14;2002515;71;32804;-69
2022/03/18 07:00:52;;;;;;;63.47;58.63;;;;;;;3.98;100.00;104236.13;2011038;71;32805;-70
2022/03/18 07:06:36;;;;;;;60.43;55.57;;;;;;;3.99;100.00;104241.11;2009457;71;32890;-68
2022/03/18 07:12:21;;;;;;;59.40;54.60;;;;;;;4.01;100.00;104257.83;2003948;71;32791;-68
2022/03/18 07:18:06;;;;;;;58.40;53.40;;;;;;;4.33;100.00;104265.47;2014902;71;32796;-68
2022/03/18 07:23:50;;;;;;;63.43;57.90;;;;;;;4.49;100.00;104265.58;2000881;71;32749;-68
2022/03/18 07:29:35;;;;;;;58.00;53.60;;;;;;;4.69;100.00;104262.11;2009441;71;32923;-70
2022/03/18 07:35:21;;;;;;;61.77;57.10;;;;;;;4.66;100.00;104261.58;2003847;71;32800;-69
2022/03/18 07:41:07;;;;;;;57.57;53.00;;;;;;;5.04;100.00;104267.98;2013110;71;32848;-68
2022/03/18 07:46:51;;;;;;;60.70;54.90;;;;;;;5.43;100.00;104262.25;1991491;71;32776;-68
2022/03/18 07:52:36;;;;;;;63.07;57.27;;;;;;;6.13;100.00;104270.16;2010921;71;32889;-67
2022/03/18 07:58:22;;;;;;;61.93;56.13;;;;;;;6.31;100.00;104267.58;2005693;71;33005;-67
2022/03/18 08:04:12;;;;;;;61.43;55.10;;;;;;;6.45;100.00;104268.78;2014659;71;32917;-70
2022/03/18 08:09:54;;;;;;;68.77;62.20;;;;;;;6.47;100.00;104272.73;2005664;71;33297;-68
2022/03/18 08:15:40;;;;;;;65.33;58.97;;;;;;;6.58;100.00;104277.40;2014597;71;32885;-68
2022/03/18 08:21:26;;;;;;;65.70;59.70;;;;;;;6.78;100.00;104270.95;2016616;71;32854;-72
2022/03/18 08:27:11;;;;;;;65.23;59.10;;;;;;;6.93;100.00;104273.87;2000509;71;32818;-70
2022/03/18 08:32:55;;;;;;;68.63;61.63;;;;;;;6.90;100.00;104271.43;2016491;71;32823;-67
2022/03/18 08:38:40;;;;;;;69.97;62.87;;;;;;;7.03;100.00;104272.61;2014787;71;32874;-72
2022/03/18 08:44:24;;;;;;;78.30;70.40;;;;;;;7.17;100.00;104273.77;2000743;71;32773;-72
2022/03/18 08:50:10;;;;;;;76.70;68.60;;;;;;;7.22;100.00;104272.71;2011169;71;32877;-67
2022/03/18 08:55:56;;;;;;;79.40;71.13;;;;;;;7.76;100.00;104270.84;2000647;71;32814;-67
2022/03/18 09:01:40;;;;;;;75.87;67.90;;;;;;;8.15;100.00;104272.12;2009609;71;33279;-70
2022/03/18 09:07:25;;;;;;;76.90;69.10;;;;;;;8.48;100.00;104269.42;2013472;71;32883;-69
2022/03/18 09:13:10;;;;;;;75.63;67.33;;;;;;;8.96;100.00;104264.41;2014988;70;33288;-70
2022/03/18 09:18:57;;;;;;;78.27;70.37;;;;;;;9.45;100.00;104266.04;2013072;71;32919;-68
2022/03/18 09:24:41;;;;;;;77.13;69.93;;;;;;;9.58;100.00;104277.31;2011388;71;32829;-68
2022/03/18 09:30:26;;;;;;;81.93;74.77;;;;;;;10.10;100.00;104271.45;1994852;71;33326;-71
2022/03/18 09:36:11;;;;;;;78.53;71.57;;;;;;;10.43;100.00;104271.28;2000373;71;32830;-69
2022/03/18 09:41:56;;;;;;;77.67;71.27;;;;;;;10.83;100.00;104280.76;2002147;71;32860;-70
2022/03/18 09:47:49;;;;;;;61.67;55.93;;;;;;;10.96;100.00;104275.81;2016734;71;32837;-68
2022/03/18 09:53:35;;;;;;;63.13;57.33;;;;;;;11.31;100.00;104277.52;2006083;71;32840;-68
2022/03/18 09:59:21;;;;;;;67.20;61.37;;;;;;;11.41;100.00;104284.10;2014619;71;32934;-70
2022/03/18 10:05:10;;;;;;;64.87;59.13;;;;;;;11.54;100.00;104279.12;1980107;72;33050;-70
2022/03/18 10:10:54;;;;;;;64.57;58.97;;;;;;;11.82;100.00;104297.98;2007808;70;33258;-70
2022/03/18 10:16:41;;;;;;;62.47;56.93;;;;;;;11.95;100.00;104298.55;2013315;71;33374;-69
2022/03/18 10:22:28;;;;;;;64.47;58.93;;;;;;;12.14;100.00;104286.61;2006053;71;32733;-70
2022/03/18 10:28:12;;;;;;;63.93;58.00;;;;;;;12.39;100.00;104282.12;2010961;71;32874;-66
2022/03/18 10:40:03;;;;;;;61.83;56.50;;;;;;;12.92;100.00;104279.30;1994879;70;32881;-69
2022/03/18 10:46:02;;;;;;;62.13;57.17;;;;;;;12.94;100.00;104277.14;2000220;71;32815;-69
2022/03/18 10:51:48;;;;;;;62.40;57.90;;;;;;;13.16;100.00;104273.90;2000933;70;32801;-66
2022/03/18 10:57:39;;;;;;;65.83;60.40;;;;;;;13.10;100.00;104276.16;2007549;71;33405;-69
2022/03/18 11:03:26;;;;;;;62.47;58.07;;;;;;;13.36;100.00;104278.00;2009294;71;33002;-71
2022/03/18 11:09:12;;;;;;;63.53;59.27;;;;;;;13.61;100.00;104279.50;1991411;71;32740;-71
2022/03/18 11:15:04;;;;;;;61.37;57.17;;;;;;;13.62;100.00;104282.09;1999092;71;32816;-67
2022/03/18 11:20:51;;;;;;;61.63;57.80;;;;;;;13.78;100.00;104287.69;2004593;71;33170;-66
2022/03/18 11:26:38;;;;;;;60.33;55.87;;;;;;;13.86;100.00;104286.03;2002402;71;33437;-72
2022/03/18 11:32:26;;;;;;;61.27;57.20;;;;;;;14.09;100.00;104279.34;2006085;71;32795;-67
2022/03/18 11:38:14;;;;;;;58.43;54.97;;;;;;;13.98;100.00;104281.47;2006192;71;32790;-67
2022/03/18 11:44:09;;;;;;;58.47;54.67;;;;;;;14.35;100.00;104276.03;2018463;71;33285;-71
2022/03/18 11:49:53;;;;;;;57.93;54.10;;;;;;;14.20;100.00;104271.31;2016793;71;33275;-67
2022/03/18 11:55:37;;;;;;;54.83;51.57;;;;;;;14.50;100.00;104262.61;2011322;71;32806;-71
2022/03/18 12:01:48;;;;;;;54.07;50.60;;;;;;;14.48;100.00;104267.56;2002145;71;32798;-71
2022/03/18 12:07:56;;;;;;;50.23;47.43;;;;;;;14.76;100.00;104258.70;2003808;71;32872;-66
2022/03/18 12:13:51;;;;;;;46.43;43.90;;;;;;;14.64;100.00;104253.52;2016689;71;32848;-66
2022/03/18 12:19:38;;;;;;;52.53;49.43;;;;;;;14.87;100.00;104250.39;2016755;71;33433;-67
2022/03/18 12:25:26;;;;;;;45.90;43.17;;;;;;;15.08;100.00;104249.08;1991521;71;32895;-70
2022/03/18 12:31:20;;;;;;;44.07;41.50;;;;;;;14.82;100.00;104241.83;2000718;71;32893;-72
2022/03/18 12:37:19;;;;;;;44.20;41.60;;;;;;;14.66;100.00;104240.17;1998493;71;32887;-67
2022/03/18 12:43:04;;;;;;;40.10;37.77;;;;;;;14.76;100.00;104239.11;1991415;71;32775;-67
2022/03/18 12:48:49;;;;;;;36.93;34.90;;;;;;;14.76;100.00;104239.11;2008246;71;33235;-67
2022/03/18 12:54:35;;;;;;;37.60;35.57;;;;;;;14.97;100.00;104233.06;2009522;71;33293;-67
2022/03/18 13:00:27;;;;;;;36.73;34.90;;;;;;;14.82;100.00;104227.83;2016416;71;32814;-67
2022/03/18 13:06:18;;;;;;;29.73;27.90;;;;;;;15.00;100.00;104216.65;2002581;71;32787;-71
2022/03/18 13:12:01;;;;;;;27.57;25.87;;;;;;;15.09;100.00;104218.59;2018422;71;33281;-67
2022/03/18 13:17:49;;;;;;;23.67;22.47;;;;;;;14.98;100.00;104223.02;2009312;71;32897;-69
2022/03/18 13:23:42;;;;;;;24.63;23.10;;;;;;;15.00;100.00;104215.79;2000559;71;32916;-67
2022/03/18 13:35:35;;;;;;;24.60;22.70;;;;;;;15.51;100.00;104206.97;2014926;71;34088;-66
2022/03/18 13:41:24;;;;;;;23.50;21.80;;;;;;;15.60;100.00;104206.09;2016607;71;32934;-67
2022/03/18 13:47:12;;;;;;;23.80;22.50;;;;;;;15.48;100.00;104211.08;1994896;71;33342;-71
2022/03/18 13:53:20;;;;;;;21.23;20.00;;;;;;;15.12;100.00;104203.25;2009327;71;32842;-72
2022/03/18 13:59:13;;;;;;;23.33;21.97;;;;;;;15.25;100.00;104201.69;2005792;70;32835;-68
2022/03/18 14:05:16;;;;;;;19.80;18.70;;;;;;;15.42;100.00;104196.61;1980434;72;33095;-75
2022/03/18 14:12:08;;;;;;;19.53;18.40;;;;;;;15.55;100.00;104201.74;2004481;71;33323;-78
2022/03/18 14:17:09;;;;;;;18.37;17.20;;;;;;;15.31;100.00;104194.61;2016728;71;32860;-69
2022/03/18 14:23:17;;;;;;;20.77;19.47;;;;;;;15.46;100.00;104188.58;2000627;71;32791;-70
2022/03/18 14:29:01;;;;;;;19.87;18.40;;;;;;;15.29;100.00;104197.33;2018408;71;32850;-75
2022/03/18 14:34:48;;;;;;;19.27;18.20;;;;;;;15.49;100.00;104197.90;2004098;71;32846;-74
2022/03/18 14:40:33;;;;;;;21.00;19.70;;;;;;;15.42;100.00;104200.80;2009612;71;33295;-70
2022/03/18 14:46:18;;;;;;;19.63;18.63;;;;;;;15.44;100.00;104201.98;1998960;71;32778;-75
2022/03/18 14:52:02;;;;;;;18.30;17.30;;;;;;;15.45;100.00;104196.13;2009456;71;32840;-69
2022/03/18 14:57:47;;;;;;;18.40;17.20;;;;;;;15.40;100.00;104190.94;2013546;71;32945;-70
2022/03/18 15:03:32;;;;;;;19.63;18.20;;;;;;;15.22;100.00;104190.42;2012887;71;32855;-70
2022/03/18 15:09:16;;;;;;;18.83;17.87;;;;;;;15.13;100.00;104197.97;2004119;71;32896;-77
2022/03/18 15:15:01;;;;;;;17.07;16.13;;;;;;;15.15;100.00;104188.23;2011201;71;32860;-68
2022/03/18 15:20:49;;;;;;;18.63;17.50;;;;;;;15.17;100.00;104186.06;2000087;70;32913;-74
2022/03/18 15:26:37;;;;;;;18.63;17.53;;;;;;;15.11;100.00;104191.73;2002196;71;32971;-72
2022/03/18 15:32:21;;;;;;;19.50;17.93;;;;;;;15.12;100.00;104180.31;2017081;71;33490;-70
2022/03/18 15:38:05;;;;;;;17.27;16.20;;;;;;;15.09;100.00;104177.12;2013373;71;32921;-71
2022/03/18 15:43:49;;;;;;;17.03;16.03;;;;;;;14.87;100.00;104175.34;2014873;71;33410;-73
2022/03/18 15:49:36;;;;;;;17.07;15.90;;;;;;;14.88;100.00;104179.86;1991544;71;32898;-77
2022/03/18 15:55:23;;;;;;;15.53;14.73;;;;;;;14.88;100.00;104173.73;2007520;71;32885;-70
2022/03/18 16:01:07;;;;;;;16.00;14.97;;;;;;;14.74;100.00;104168.50;2005668;71;32947;-73
2022/03/18 16:06:55;;;;;;;17.20;16.20;;;;;;;14.55;100.00;104176.88;2014669;71;32849;-73
2022/03/18 16:12:40;;;;;;;17.60;16.60;;;;;;;14.69;100.00;104160.80;2011186;71;33337;-72
2022/03/18 16:18:30;;;;;;;18.40;16.97;;;;;;;14.68;100.00;104158.22;2002563;71;33270;-73
2022/03/18 16:24:16;;;;;;;16.67;15.47;;;;;;;14.44;100.00;104157.20;2013180;71;32890;-68
2022/03/18 16:30:01;;;;;;;17.27;16.33;;;;;;;14.21;100.00;104153.62;2009183;71;33494;-69
2022/03/18 16:35:46;;;;;;;16.87;15.87;;;;;;;14.22;100.00;104156.73;2014627;71;32907;-69
2022/03/18 16:41:31;;;;;;;15.43;14.27;;;;;;;14.12;100.00;104146.06;2005407;71;32925;-74
2022/03/18 16:53:19;;;;;;;14.33;13.33;;;;;;;13.96;100.00;104156.97;1991542;71;32835;-74
2022/03/18 16:59:04;;;;;;;13.80;13.07;;;;;;;14.16;100.00;104165.20;2007856;71;32833;-75
2022/03/18 17:04:49;;;;;;;14.57;13.47;;;;;;;13.93;100.00;104163.88;1998655;71;33346;-75
2022/03/18 17:10:35;;;;;;;15.83;14.30;;;;;;;14.03;100.00;104157.79;1995176;71;32839;-70
2022/03/18 17:16:21;;;;;;;15.77;14.60;;;;;;;13.96;100.00;104158.36;2014755;71;32939;-75
2022/03/18 17:22:08;;;;;;;16.13;14.93;;;;;;;14.01;100.00;104162.73;1991595;71;33344;-69
2022/03/18 17:27:53;;;;;;;18.60;17.60;;;;;;;13.54;100.00;104161.36;1994989;71;32828;-69
2022/03/18 17:33:37;;;;;;;17.87;16.87;;;;;;;13.31;100.00;104164.71;2014604;71;32856;-69
2022/03/18 17:39:22;;;;;;;18.83;17.67;;;;;;;13.18;100.00;104178.20;1995029;71;32874;-76
2022/03/18 17:45:08;;;;;;;21.20;19.60;;;;;;;12.94;100.00;104184.50;2015129;71;32882;-67
2022/03/18 17:50:53;;;;;;;20.90;19.50;;;;;;;12.99;100.00;104183.84;2014611;71;32937;-74
2022/03/18 17:56:39;;;;;;;22.97;21.67;;;;;;;12.81;100.00;104194.84;2013069;71;32924;-68
2022/03/18 18:02:24;;;;;;;24.30;22.60;;;;;;;12.69;100.00;104202.50;1990995;70;107013;-77
2022/03/18 18:08:13;;;;;;;26.27;24.77;;;;;;;12.43;100.00;104205.86;2006339;71;32901;-76
2022/03/18 18:13:58;;;;;;;25.20;23.80;;;;;;;12.36;100.00;104204.49;1995554;71;33306;-78
2022/03/18 18:25:46;;;;;;;25.33;23.73;;;;;;;11.99;100.00;104208.76;1995097;71;32856;-74
2022/03/18 18:31:22;;;;;;;24.60;23.30;;;;;;;12.09;100.00;104214.78;1960462;69;33324;-76
2022/03/18 18:33:52;;;;;;;27.53;25.83;;;;;;;12.03;100.00;104221.72;1908424;75;26180;-73
2022/03/18 18:36:23;;;;;;;32.03;29.83;;;;;;;11.79;100.00;104221.28;1939807;74;26177;-75
2022/03/18 18:38:53;;;;;;;36.10;34.10;;;;;;;11.52;100.00;104225.02;1874152;76;26211;-82
2022/03/18 18:41:24;;;;;;;38.80;36.40;;;;;;;11.33;100.00;104228.61;1939752;74;26220;-80
2022/03/18 18:43:54;;;;;;;38.80;36.40;;;;;;;11.19;100.00;104233.25;1873932;76;26639;-82
2022/03/18 18:46:25;;;;;;;37.60;35.50;;;;;;;11.16;100.00;104231.42;1940035;74;26276;-74
2022/03/18 18:48:55;;;;;;;40.83;38.57;;;;;;;11.14;100.00;104229.36;1873876;76;26765;-79
2022/03/18 18:51:25;;;;;;;36.90;34.60;;;;;;;11.07;100.00;104227.09;1939705;74;26166;-72
2022/03/18 18:53:56;;;;;;;34.73;32.57;;;;;;;11.11;100.00;104227.87;1939910;74;26825;-72
2022/03/18 18:56:33;;;;;;;36.57;34.37;;;;;;;11.29;100.00;104231.48;1873943;76;26187;-77
2022/03/18 18:59:02;;;;;;;38.70;36.50;;;;;;;11.26;100.00;104233.27;1939364;74;26221;-79
2022/03/18 19:01:34;;;;;;;35.30;33.40;;;;;;;11.10;100.00;104236.41;1939809;74;26189;-78
2022/03/18 19:04:05;;;;;;;35.00;33.00;;;;;;;11.17;100.00;104231.20;1873964;75;26305;-74
2022/03/18 19:06:35;;;;;;;35.83;33.83;;;;;;;11.27;100.00;104240.03;1939819;74;26181;-77
2022/03/18 19:09:06;;;;;;;34.30;32.30;;;;;;;11.21;100.00;104239.45;1874032;76;26266;-80
2022/03/18 19:11:37;;;;;;;35.83;33.70;;;;;;;11.21;100.00;104235.28;1939614;74;26247;-77
2022/03/18 19:14:09;;;;;;;29.27;27.63;;;;;;;11.23;100.00;104238.73;1874004;76;26191;-75
2022/03/18 19:16:41;;;;;;;30.60;28.80;;;;;;;11.56;100.00;104233.80;1939760;74;26185;-77
2022/03/18 19:19:12;;;;;;;34.83;33.00;;;;;;;11.42;100.00;104237.11;1939912;74;26181;-76
2022/03/18 19:21:43;;;;;;;32.00;30.30;;;;;;;11.24;100.00;104244.62;1874069;76;26207;-74
2022/03/18 19:24:15;;;;;;;31.73;29.83;;;;;;;11.36;100.00;104240.18;1939737;74;26342;-78
2022/03/18 19:26:46;;;;;;;31.60;29.63;;;;;;;11.33;100.00;104249.48;1873858;76;26205;-77
2022/03/18 19:29:16;;;;;;;32.23;30.60;;;;;;;11.41;100.00;104248.77;1939669;74;26252;-77
2022/03/18 19:34:34;;;;;;;36.23;34.07;;;;;;;11.10;100.00;104249.80;1874119;76;26216;-79
2022/03/18 19:37:05;;;;;;;33.43;31.53;;;;;;;11.10;100.00;104251.19;1939734;74;26283;-78
2022/03/18 19:39:35;;;;;;;36.00;33.80;;;;;;;11.18;100.00;104254.32;1939754;74;26233;-76
2022/03/18 19:45:20;;;;;;;36.30;34.33;;;;;;;11.11;100.00;104247.34;2001053;71;32778;-70
2022/03/18 19:51:04;;;;;;;38.80;36.57;;;;;;;10.93;100.00;104242.84;2004220;71;32814;-74
2022/03/18 20:02:50;;;;;;;52.00;49.00;;;;;;;10.67;100.00;104242.67;2004165;71;32837;-75
2022/03/18 20:08:34;;;;;;;63.00;59.33;;;;;;;10.68;100.00;104244.41;2005869;71;32814;-68
2022/03/18 20:14:18;;;;;;;66.53;62.73;;;;;;;10.43;100.00;104247.65;1994997;71;33315;-72
2022/03/18 20:20:03;;;;;;;71.50;67.43;;;;;;;10.32;100.00;104244.02;1995750;71;30905;-67
2022/03/18 20:25:47;;;;;;;78.17;73.57;;;;;;;10.03;100.00;104248.31;2004261;71;32950;-69
2022/03/18 20:31:32;;;;;;;78.97;74.07;;;;;;;10.03;100.00;104249.70;2000986;71;33248;-74
2022/03/18 20:37:16;;;;;;;76.73;71.73;;;;;;;10.06;100.00;104245.98;2013583;71;32832;-68
2022/03/18 20:43:01;;;;;;;78.30;73.30;;;;;;;10.05;100.00;104251.77;2000364;71;33308;-73
2022/03/18 20:48:47;;;;;;;81.83;76.40;;;;;;;9.71;100.00;104253.00;2016947;71;32831;-74
2022/03/18 20:54:31;;;;;;;81.33;75.73;;;;;;;9.82;100.00;104249.17;2017031;71;32951;-75
2022/03/18 21:00:18;;;;;;;77.83;72.77;;;;;;;9.85;100.00;104245.12;1997328;71;32764;-69
2022/03/18 21:06:03;;;;;;;81.63;76.50;;;;;;;9.81;100.00;104250.75;1997345;71;33222;-69
2022/03/18 21:11:47;;;;;;;79.37;74.03;;;;;;;9.59;100.00;104245.70;2014990;71;32910;-76
2022/03/18 21:17:32;;;;;;;80.07;75.13;;;;;;;9.82;100.00;104241.36;2015275;71;32898;-76
2022/03/18 21:23:17;;;;;;;76.10;71.47;;;;;;;10.26;100.00;104242.05;1999288;71;32832;-73
2022/03/18 21:35:06;;;;;;;79.17;74.07;;;;;;;10.12;100.00;104222.64;2007909;70;32819;-68
2022/03/18 21:40:50;;;;;;;77.07;71.97;;;;;;;10.27;100.00;104229.02;2017019;71;32913;-66
2022/03/18 21:46:38;;;;;;;76.17;71.00;;;;;;;10.24;100.00;104226.09;2006531;71;33263;-68
2022/03/18 21:52:23;;;;;;;80.33;75.23;;;;;;;10.30;100.00;104222.53;2011326;71;32829;-73
2022/03/18 21:58:07;;;;;;;81.33;76.03;;;;;;;10.23;100.00;104218.81;1991948;70;32755;-68
2022/03/18 22:03:52;;;;;;;82.23;76.83;;;;;;;10.20;100.00;104219.75;2016931;71;32947;-73
2022/03/18 22:09:36;;;;;;;82.63;77.40;;;;;;;10.06;100.00;104211.27;2002662;71;32769;-72
2022/03/18 22:15:22;;;;;;;83.30;78.07;;;;;;;10.05;100.00;104210.09;2005687;71;32830;-73
2022/03/18 22:21:07;;;;;;;83.43;77.80;;;;;;;9.92;100.00;104212.75;2011337;71;32869;-74
2022/03/18 22:26:53;;;;;;;82.03;76.30;;;;;;;10.05;100.00;104212.31;1872155;70;33223;-72
2022/03/18 22:32:41;;;;;;;84.57;78.40;;;;;;;9.85;100.00;104204.33;2006300;71;32850;-70
2022/03/18 22:38:26;;;;;;;82.53;77.00;;;;;;;9.83;100.00;104205.08;1995435;71;32923;-73
2022/03/18 22:44:12;;;;;;;81.47;75.93;;;;;;;9.78;100.00;104206.72;1995273;71;32749;-73
2022/03/18 22:49:56;;;;;;;80.63;75.03;;;;;;;9.77;100.00;104196.67;2015321;71;32897;-67
2022/03/18 22:55:41;;;;;;;85.87;80.07;;;;;;;9.60;100.00;104188.61;2016998;71;32879;-67
2022/03/18 23:01:25;;;;;;;84.63;78.60;;;;;;;9.73;100.00;104187.02;2004694;71;32749;-68
2022/03/18 23:07:11;;;;;;;85.10;79.13;;;;;;;9.81;100.00;104179.94;2004528;71;32774;-67
2022/03/18 23:12:57;;;;;;;82.27;76.27;;;;;;;9.68;100.00;104182.58;1997238;71;32771;-74
2022/03/18 23:18:44;;;;;;;84.07;77.77;;;;;;;9.75;100.00;104169.13;1995594;71;32822;-73
2022/03/18 23:24:30;;;;;;;84.03;77.93;;;;;;;9.80;100.00;104169.36;2011573;71;33376;-73
2022/03/18 23:30:15;;;;;;;88.33;81.80;;;;;;;9.65;100.00;104176.05;2016775;71;33402;-72
2022/03/18 23:32:46;;;;;;;88.63;82.53;;;;;;;9.56;100.00;104176.70;1976941;72;26273;-72
2022/03/18 23:38:31;;;;;;;89.20;83.03;;;;;;;9.55;100.00;104166.13;2011602;71;32835;-68
2022/03/18 23:44:16;;;;;;;90.10;83.97;;;;;;;9.48;100.00;104159.66;2009978;71;32815;-67
2022/03/18 23:50:00;;;;;;;87.67;81.50;;;;;;;9.65;100.00;104154.70;1999191;71;33291;-67
2022/03/18 23:55:45;;;;;;;89.07;82.67;;;;;;;9.70;100.00;104161.05;2011626;71;32805;-73
